createdAt,value
2022-08-31T00:02:19.718Z,0.76
2022-08-31T00:07:25.764Z,0.79
2022-08-31T00:12:32.193Z,0.75
2022-08-31T00:17:38.346Z,0.67
2022-08-31T00:22:44.613Z,0.76
2022-08-31T00:27:51.055Z,0.72
2022-08-31T00:32:58.546Z,0.74
2022-08-31T00:38:03.061Z,0.63
2022-08-31T00:43:09.425Z,0.74
2022-08-31T00:48:15.557Z,0.81
2022-08-31T00:53:21.785Z,0.88
2022-08-31T00:58:27.974Z,0.84
2022-08-31T01:03:34.589Z,0.77
2022-08-31T01:08:40.821Z,0.78
2022-08-31T01:13:47.185Z,0.99
2022-08-31T01:18:53.345Z,0.87
2022-08-31T01:23:59.622Z,0.89
2022-08-31T01:29:05.700Z,0.87
2022-08-31T01:34:11.946Z,0.77
2022-08-31T01:39:18.541Z,0.69
2022-08-31T01:44:24.750Z,0.85
2022-08-31T01:49:30.942Z,0.88
2022-08-31T01:54:43.394Z,0.81
2022-08-31T01:59:39.656Z,0.90
2022-08-31T02:04:45.985Z,0.89
2022-08-31T02:09:52.269Z,0.92
2022-08-31T02:14:58.385Z,0.80
2022-08-31T02:20:04.657Z,0.99
2022-08-31T02:25:10.905Z,1.37
2022-08-31T02:30:17.137Z,1.21
2022-08-31T02:35:23.305Z,1.08
2022-08-31T02:40:29.581Z,0.92
2022-08-31T02:45:35.633Z,0.93
2022-08-31T02:50:41.828Z,1.08
2022-08-31T02:55:47.956Z,1.06
2022-08-31T03:00:54.255Z,1.08
2022-08-31T03:06:00.456Z,1.05
2022-08-31T03:11:06.685Z,0.95
2022-08-31T03:16:12.920Z,1.09
2022-08-31T03:21:19.207Z,1.26
2022-08-31T03:26:25.336Z,1.15
2022-08-31T03:31:31.691Z,1.16
2022-08-31T03:36:37.778Z,1.26
2022-08-31T03:41:43.940Z,1.22
2022-08-31T03:46:50.271Z,1.33
2022-08-31T03:51:56.494Z,1.25
2022-08-31T03:57:02.664Z,1.27
2022-08-31T04:02:09.034Z,1.18
2022-08-31T04:07:15.176Z,1.41
2022-08-31T04:12:21.592Z,1.47
2022-08-31T04:17:27.790Z,1.35
2022-08-31T04:22:34.138Z,1.41
2022-08-31T04:27:40.394Z,1.56
2022-08-31T04:32:46.120Z,1.57
2022-08-31T04:37:52.257Z,1.53
2022-08-31T04:42:58.772Z,1.54
2022-08-31T04:48:05.049Z,1.53
2022-08-31T04:53:10.924Z,1.52
2022-08-31T04:58:17.025Z,1.66
2022-08-31T05:03:23.259Z,1.54
2022-08-31T05:08:29.398Z,1.55
2022-08-31T05:13:35.726Z,1.62
2022-08-31T05:18:43.660Z,1.75
2022-08-31T05:23:50.230Z,1.86
2022-08-31T05:28:56.373Z,1.41
2022-08-31T05:34:02.691Z,1.63
2022-08-31T05:39:08.861Z,1.85
2022-08-31T05:44:15.165Z,1.48
2022-08-31T05:49:21.272Z,1.52
2022-08-31T05:54:27.521Z,1.66
2022-08-31T05:59:37.079Z,2.18
2022-08-31T06:04:43.350Z,1.75
2022-08-31T06:09:49.468Z,1.49
2022-08-31T06:14:55.684Z,1.74
2022-08-31T06:20:01.766Z,1.38
2022-08-31T06:25:08.045Z,1.51
2022-08-31T06:30:14.285Z,1.40
2022-08-31T06:35:20.474Z,1.47
2022-08-31T06:40:26.635Z,1.32
2022-08-31T06:45:32.837Z,1.32
2022-08-31T06:50:38.944Z,1.50
2022-08-31T06:55:45.140Z,1.46
2022-08-31T07:00:52.969Z,1.32
2022-08-31T07:05:57.182Z,1.44
2022-08-31T07:11:03.641Z,1.21
2022-08-31T07:16:09.995Z,1.66
2022-08-31T07:21:16.021Z,1.35
2022-08-31T07:26:22.224Z,1.17
2022-08-31T07:31:28.332Z,1.16
2022-08-31T07:36:34.875Z,1.38
2022-08-31T07:41:40.968Z,1.09
2022-08-31T07:46:47.252Z,1.18
2022-08-31T07:51:52.909Z,1.13
2022-08-31T07:56:59.165Z,1.12
2022-08-31T08:02:05.453Z,1.25
2022-08-31T08:07:11.617Z,1.22
2022-08-31T08:12:18.508Z,1.01
2022-08-31T08:17:24.513Z,1.06
2022-08-31T08:22:41.915Z,1.00
2022-08-31T08:27:36.355Z,0.97
2022-08-31T08:32:41.993Z,0.91
2022-08-31T08:37:58.497Z,1.01
2022-08-31T08:42:54.009Z,0.86
2022-08-31T08:48:00.236Z,1.01
2022-08-31T08:53:06.353Z,0.91
2022-08-31T08:58:13.589Z,0.93
2022-08-31T09:03:18.502Z,0.80
2022-08-31T09:08:24.518Z,0.75
2022-08-31T09:13:30.777Z,0.70
2022-08-31T09:18:36.975Z,0.76
2022-08-31T09:23:43.121Z,0.76
2022-08-31T09:28:49.320Z,0.75
2022-08-31T09:33:55.468Z,0.80
2022-08-31T09:39:01.738Z,0.76
2022-08-31T09:44:07.913Z,0.78
2022-08-31T09:49:14.256Z,0.79
2022-08-31T09:54:20.561Z,0.72
2022-08-31T09:59:26.874Z,0.73
2022-08-31T10:04:32.942Z,0.73
2022-08-31T10:09:39.173Z,0.63
2022-08-31T10:14:44.856Z,0.87
2022-08-31T10:19:51.110Z,0.84
2022-08-31T10:24:57.358Z,0.93
2022-08-31T10:30:03.802Z,0.77
2022-08-31T10:35:09.983Z,0.90
2022-08-31T10:40:17.014Z,0.85
2022-08-31T10:45:23.300Z,0.81
2022-08-31T10:50:29.826Z,0.93
2022-08-31T10:55:35.910Z,0.87
2022-08-31T11:00:42.164Z,0.85
2022-08-31T11:05:50.782Z,0.80
2022-08-31T11:10:54.150Z,0.76
2022-08-31T11:16:00.417Z,0.85
2022-08-31T11:21:06.685Z,0.89
2022-08-31T11:26:12.907Z,0.75
2022-08-31T11:31:19.281Z,0.83
2022-08-31T11:36:25.518Z,0.71
2022-08-31T11:41:31.862Z,0.74
2022-08-31T11:46:38.071Z,0.67
2022-08-31T11:51:43.746Z,0.77
2022-08-31T11:56:50.247Z,0.76
2022-08-31T12:01:56.635Z,0.81
2022-08-31T12:07:02.740Z,0.64
2022-08-31T12:12:08.898Z,0.74
2022-08-31T12:17:15.058Z,0.63
2022-08-31T12:22:21.302Z,0.65
2022-08-31T12:27:27.395Z,0.65
2022-08-31T12:32:33.694Z,0.72
2022-08-31T12:37:39.805Z,0.72
2022-08-31T12:42:46.253Z,0.62
2022-08-31T12:47:51.698Z,0.75
2022-08-31T12:52:57.882Z,0.73
2022-08-31T12:58:04.078Z,0.87
2022-08-31T13:03:10.286Z,0.82
2022-08-31T13:08:16.442Z,0.66
2022-08-31T13:13:23.195Z,0.81
2022-08-31T13:18:29.778Z,0.79
2022-08-31T13:23:36.019Z,0.82
2022-08-31T13:28:42.165Z,0.77
2022-08-31T13:33:48.414Z,0.72
2022-08-31T13:38:54.657Z,0.95
2022-08-31T13:44:00.990Z,0.90
2022-08-31T13:49:06.779Z,0.95
2022-08-31T13:54:12.498Z,0.75
2022-08-31T13:59:18.619Z,0.89
2022-08-31T14:04:24.840Z,0.91
2022-08-31T14:09:31.002Z,0.88
2022-08-31T14:14:37.238Z,0.86
2022-08-31T14:19:43.410Z,0.82
2022-08-31T14:24:49.586Z,1.00
2022-08-31T14:29:55.706Z,0.86
2022-08-31T14:35:01.951Z,1.05
2022-08-31T14:40:08.311Z,0.77
2022-08-31T14:45:14.570Z,0.88
2022-08-31T14:50:20.778Z,0.87
2022-08-31T14:55:27.132Z,0.92
2022-08-31T15:00:33.350Z,0.80
2022-08-31T15:05:39.580Z,0.93
2022-08-31T15:10:45.840Z,0.77
2022-08-31T15:15:52.162Z,0.99
2022-08-31T15:20:58.285Z,0.96
2022-08-31T15:26:04.796Z,0.93
2022-08-31T15:31:10.947Z,0.85
2022-08-31T15:36:17.261Z,1.07
2022-08-31T15:41:23.282Z,0.83
2022-08-31T15:46:29.564Z,0.93
2022-08-31T15:51:35.642Z,0.89
2022-08-31T15:57:36.343Z,0.83
2022-08-31T16:02:42.565Z,0.85
2022-08-31T16:07:48.830Z,0.88
2022-08-31T16:12:54.966Z,1.12
2022-08-31T16:18:01.292Z,0.80
2022-08-31T16:23:07.587Z,0.78
2022-08-31T16:28:13.890Z,0.84
2022-08-31T16:33:19.921Z,0.97
2022-08-31T16:38:26.226Z,1.05
2022-08-31T16:43:32.452Z,0.83
2022-08-31T16:48:38.688Z,0.76
2022-08-31T16:53:44.808Z,0.70
2022-08-31T16:58:52.531Z,0.87
2022-08-31T17:03:57.039Z,0.81
2022-08-31T17:09:03.353Z,0.66
2022-08-31T17:14:09.577Z,0.91
2022-08-31T17:19:16.015Z,0.82
2022-08-31T17:24:22.210Z,0.90
2022-08-31T17:29:28.578Z,1.17
2022-08-31T17:34:34.290Z,0.82
2022-08-31T17:39:40.785Z,0.88
2022-08-31T17:44:47.102Z,0.82
2022-08-31T17:49:53.350Z,0.84
2022-08-31T17:54:59.568Z,0.74
2022-08-31T18:00:05.858Z,0.88
2022-08-31T18:05:12.381Z,0.79
2022-08-31T18:10:18.431Z,0.94
2022-08-31T18:15:24.839Z,0.99
2022-08-31T18:20:31.136Z,0.86
2022-08-31T18:25:37.787Z,1.01
2022-08-31T18:30:44.074Z,1.06
2022-08-31T18:35:50.355Z,0.94
2022-08-31T18:40:56.662Z,0.80
2022-08-31T18:46:02.766Z,1.01
2022-08-31T18:51:09.101Z,0.99
2022-08-31T18:56:15.365Z,1.05
2022-08-31T19:01:21.702Z,1.11
2022-08-31T19:06:27.915Z,1.17
2022-08-31T19:11:34.562Z,1.15
2022-08-31T19:16:40.892Z,1.14
2022-08-31T19:21:47.181Z,1.03
2022-08-31T19:26:53.774Z,1.17
2022-08-31T19:32:00.019Z,1.27
2022-08-31T19:37:06.286Z,1.26
2022-08-31T19:42:14.906Z,1.17
2022-08-31T19:47:24.653Z,1.02
2022-08-31T19:52:30.019Z,1.18
2022-08-31T19:57:36.078Z,1.03
2022-08-31T20:02:42.631Z,1.13
2022-08-31T20:07:48.697Z,1.18
2022-08-31T20:12:54.498Z,1.22
2022-08-31T20:18:00.749Z,0.96
2022-08-31T20:23:07.309Z,0.86
2022-08-31T20:28:13.483Z,0.94
2022-08-31T20:33:20.092Z,0.87
2022-08-31T20:38:26.070Z,0.98
2022-08-31T20:43:32.619Z,0.91
2022-08-31T20:48:40.914Z,1.01
2022-08-31T20:53:47.225Z,0.90
2022-08-31T20:58:53.362Z,1.04
2022-08-31T21:03:59.842Z,1.04
2022-08-31T21:09:06.045Z,0.88
2022-08-31T21:14:13.516Z,1.00
2022-08-31T21:19:18.266Z,0.99
2022-08-31T21:24:24.523Z,0.87
2022-08-31T21:29:30.681Z,0.99
2022-08-31T21:34:37.058Z,1.07
2022-08-31T21:39:43.370Z,0.98
2022-08-31T21:44:49.686Z,0.85
2022-08-31T21:49:55.806Z,1.00
2022-08-31T21:55:02.071Z,1.13
2022-08-31T22:00:08.209Z,1.01
2022-08-31T22:05:14.560Z,0.99
2022-08-31T22:10:20.701Z,0.91
2022-08-31T22:15:26.968Z,0.95
2022-08-31T22:20:33.289Z,1.00
2022-08-31T22:25:39.123Z,1.07
2022-08-31T22:30:44.947Z,1.24
2022-08-31T22:35:50.603Z,1.02
2022-08-31T22:40:56.778Z,1.01
2022-08-31T22:46:03.185Z,0.84
2022-08-31T22:51:09.284Z,0.96
2022-08-31T22:56:15.594Z,1.07
2022-08-31T23:01:21.973Z,1.04
2022-08-31T23:06:28.147Z,1.21
2022-08-31T23:11:34.491Z,1.11
2022-08-31T23:16:40.727Z,1.08
2022-08-31T23:21:47.090Z,1.08
2022-08-31T23:26:52.866Z,1.15
2022-08-31T23:31:59.131Z,1.03
2022-08-31T23:37:05.538Z,1.12
2022-08-31T23:42:11.677Z,1.14
2022-08-31T23:47:18.090Z,1.06
2022-08-31T23:52:24.278Z,1.24
2022-08-31T23:57:32.455Z,1.23
